sensor_id;sensor_type;location;lat;lon;timestamp;P1;durP1;ratioP1;P2;durP2;ratioP2
40290;SDS011;26000;48.304;13.626;2023-04-25T00:00:16;3.38;;;2.80;;
40290;SDS011;26000;48.304;13.626;2023-04-25T00:02:42;3.20;;;2.90;;
40290;SDS011;26000;48.304;13.626;2023-04-25T00:05:08;3.83;;;3.00;;
40290;SDS011;26000;48.304;13.626;2023-04-25T00:07:34;3.30;;;2.90;;
40290;SDS011;26000;48.304;13.626;2023-04-25T00:09:59;3.25;;;2.95;;
40290;SDS011;26000;48.304;13.626;2023-04-25T00:12:25;4.40;;;3.00;;
40290;SDS011;26000;48.304;13.626;2023-04-25T00:14:53;3.60;;;2.95;;
40290;SDS011;26000;48.304;13.626;2023-04-25T00:17:22;3.13;;;2.83;;
40290;SDS011;26000;48.304;13.626;2023-04-25T00:19:49;3.75;;;2.90;;
40290;SDS011;26000;48.304;13.626;2023-04-25T00:22:15;4.05;;;3.15;;
40290;SDS011;26000;48.304;13.626;2023-04-25T00:24:42;3.75;;;2.85;;
40290;SDS011;26000;48.304;13.626;2023-04-25T00:27:08;5.70;;;3.22;;
40290;SDS011;26000;48.304;13.626;2023-04-25T00:29:33;4.10;;;3.00;;
40290;SDS011;26000;48.304;13.626;2023-04-25T00:31:59;5.70;;;3.22;;
40290;SDS011;26000;48.304;13.626;2023-04-25T00:34:25;4.10;;;2.90;;
40290;SDS011;26000;48.304;13.626;2023-04-25T00:36:51;5.72;;;2.85;;
40290;SDS011;26000;48.304;13.626;2023-04-25T00:39:16;3.78;;;3.08;;
40290;SDS011;26000;48.304;13.626;2023-04-25T00:41:42;5.13;;;2.75;;
40290;SDS011;26000;48.304;13.626;2023-04-25T00:44:09;4.95;;;3.47;;
40290;SDS011;26000;48.304;13.626;2023-04-25T00:46:37;4.78;;;3.38;;
40290;SDS011;26000;48.304;13.626;2023-04-25T00:49:04;4.65;;;3.50;;
40290;SDS011;26000;48.304;13.626;2023-04-25T00:51:29;4.63;;;3.03;;
40290;SDS011;26000;48.304;13.626;2023-04-25T00:53:56;5.15;;;2.85;;
40290;SDS011;26000;48.304;13.626;2023-04-25T00:56:22;3.92;;;3.03;;
40290;SDS011;26000;48.304;13.626;2023-04-25T00:58:47;3.30;;;3.00;;
40290;SDS011;26000;48.304;13.626;2023-04-25T01:01:14;4.53;;;3.28;;
40290;SDS011;26000;48.304;13.626;2023-04-25T01:03:41;4.78;;;3.28;;
40290;SDS011;26000;48.304;13.626;2023-04-25T01:06:11;3.30;;;3.00;;
40290;SDS011;26000;48.304;13.626;2023-04-25T01:08:37;4.47;;;2.92;;
40290;SDS011;26000;48.304;13.626;2023-04-25T01:11:03;3.42;;;3.03;;
40290;SDS011;26000;48.304;13.626;2023-04-25T01:13:30;3.28;;;2.88;;
40290;SDS011;26000;48.304;13.626;2023-04-25T01:15:57;5.10;;;3.10;;
40290;SDS011;26000;48.304;13.626;2023-04-25T01:18:23;3.78;;;2.85;;
40290;SDS011;26000;48.304;13.626;2023-04-25T01:20:50;4.38;;;3.00;;
40290;SDS011;26000;48.304;13.626;2023-04-25T01:23:17;6.63;;;3.38;;
40290;SDS011;26000;48.304;13.626;2023-04-25T01:25:44;3.78;;;3.30;;
40290;SDS011;26000;48.304;13.626;2023-04-25T01:28:10;5.32;;;3.20;;
40290;SDS011;26000;48.304;13.626;2023-04-25T01:30:36;4.47;;;3.78;;
40290;SDS011;26000;48.304;13.626;2023-04-25T01:33:03;4.28;;;3.13;;
40290;SDS011;26000;48.304;13.626;2023-04-25T01:35:30;5.15;;;3.58;;
40290;SDS011;26000;48.304;13.626;2023-04-25T01:37:57;4.05;;;3.17;;
40290;SDS011;26000;48.304;13.626;2023-04-25T01:40:23;5.72;;;3.20;;
40290;SDS011;26000;48.304;13.626;2023-04-25T01:42:49;3.53;;;3.22;;
40290;SDS011;26000;48.304;13.626;2023-04-25T01:45:15;3.92;;;2.70;;
40290;SDS011;26000;48.304;13.626;2023-04-25T01:47:42;3.58;;;3.15;;
40290;SDS011;26000;48.304;13.626;2023-04-25T01:50:08;3.08;;;2.67;;
40290;SDS011;26000;48.304;13.626;2023-04-25T01:52:36;4.60;;;3.28;;
40290;SDS011;26000;48.304;13.626;2023-04-25T01:55:02;4.68;;;3.58;;
40290;SDS011;26000;48.304;13.626;2023-04-25T01:57:28;3.70;;;3.10;;
40290;SDS011;26000;48.304;13.626;2023-04-25T02:00:03;3.50;;;3.20;;
40290;SDS011;26000;48.304;13.626;2023-04-25T02:02:31;4.07;;;3.30;;
40290;SDS011;26000;48.304;13.626;2023-04-25T02:04:57;4.28;;;3.40;;
40290;SDS011;26000;48.304;13.626;2023-04-25T02:07:22;8.55;;;3.75;;
40290;SDS011;26000;48.304;13.626;2023-04-25T02:09:48;4.50;;;3.45;;
40290;SDS011;26000;48.304;13.626;2023-04-25T02:12:14;4.13;;;3.50;;
40290;SDS011;26000;48.304;13.626;2023-04-25T02:14:39;3.70;;;3.30;;
40290;SDS011;26000;48.304;13.626;2023-04-25T02:17:05;5.68;;;3.78;;
40290;SDS011;26000;48.304;13.626;2023-04-25T02:19:30;5.88;;;3.60;;
40290;SDS011;26000;48.304;13.626;2023-04-25T02:21:56;5.30;;;3.75;;
40290;SDS011;26000;48.304;13.626;2023-04-25T02:24:23;4.57;;;3.63;;
40290;SDS011;26000;48.304;13.626;2023-04-25T02:26:48;4.70;;;3.58;;
40290;SDS011;26000;48.304;13.626;2023-04-25T02:29:14;9.07;;;3.67;;
40290;SDS011;26000;48.304;13.626;2023-04-25T02:31:40;4.05;;;3.28;;
40290;SDS011;26000;48.304;13.626;2023-04-25T02:34:06;4.55;;;3.78;;
40290;SDS011;26000;48.304;13.626;2023-04-25T02:36:31;4.88;;;3.40;;
40290;SDS011;26000;48.304;13.626;2023-04-25T02:38:59;4.40;;;3.45;;
40290;SDS011;26000;48.304;13.626;2023-04-25T02:41:25;4.32;;;3.72;;
40290;SDS011;26000;48.304;13.626;2023-04-25T02:43:51;4.10;;;3.70;;
40290;SDS011;26000;48.304;13.626;2023-04-25T02:46:17;4.35;;;3.80;;
40290;SDS011;26000;48.304;13.626;2023-04-25T02:48:43;4.57;;;3.90;;
40290;SDS011;26000;48.304;13.626;2023-04-25T02:51:08;5.95;;;3.85;;
40290;SDS011;26000;48.304;13.626;2023-04-25T02:53:34;6.15;;;3.75;;
40290;SDS011;26000;48.304;13.626;2023-04-25T02:56:00;5.95;;;3.95;;
40290;SDS011;26000;48.304;13.626;2023-04-25T02:58:26;4.72;;;3.80;;
40290;SDS011;26000;48.304;13.626;2023-04-25T03:00:52;6.47;;;4.13;;
40290;SDS011;26000;48.304;13.626;2023-04-25T03:03:18;4.82;;;4.18;;
40290;SDS011;26000;48.304;13.626;2023-04-25T03:05:46;5.05;;;3.80;;
40290;SDS011;26000;48.304;13.626;2023-04-25T03:08:16;5.88;;;4.30;;
40290;SDS011;26000;48.304;13.626;2023-04-25T03:10:42;5.13;;;3.70;;
40290;SDS011;26000;48.304;13.626;2023-04-25T03:13:07;6.15;;;4.30;;
40290;SDS011;26000;48.304;13.626;2023-04-25T03:15:33;4.30;;;3.85;;
40290;SDS011;26000;48.304;13.626;2023-04-25T03:18:00;5.65;;;3.92;;
40290;SDS011;26000;48.304;13.626;2023-04-25T03:20:26;5.18;;;4.00;;
40290;SDS011;26000;48.304;13.626;2023-04-25T03:22:51;5.82;;;3.80;;
40290;SDS011;26000;48.304;13.626;2023-04-25T03:25:17;4.85;;;3.78;;
40290;SDS011;26000;48.304;13.626;2023-04-25T03:27:43;4.30;;;3.90;;
40290;SDS011;26000;48.304;13.626;2023-04-25T03:30:08;6.55;;;4.50;;
40290;SDS011;26000;48.304;13.626;2023-04-25T03:32:34;5.97;;;3.60;;
40290;SDS011;26000;48.304;13.626;2023-04-25T03:35:00;5.07;;;3.70;;
40290;SDS011;26000;48.304;13.626;2023-04-25T03:37:26;4.75;;;3.58;;
40290;SDS011;26000;48.304;13.626;2023-04-25T03:39:51;5.00;;;3.90;;
40290;SDS011;26000;48.304;13.626;2023-04-25T03:42:17;4.47;;;3.67;;
40290;SDS011;26000;48.304;13.626;2023-04-25T03:44:42;4.60;;;3.67;;
40290;SDS011;26000;48.304;13.626;2023-04-25T03:47:08;4.20;;;3.72;;
40290;SDS011;26000;48.304;13.626;2023-04-25T03:49:34;9.32;;;3.80;;
40290;SDS011;26000;48.304;13.626;2023-04-25T03:52:01;5.18;;;4.22;;
40290;SDS011;26000;48.304;13.626;2023-04-25T03:54:26;4.70;;;4.20;;
40290;SDS011;26000;48.304;13.626;2023-04-25T03:56:52;4.85;;;4.20;;
40290;SDS011;26000;48.304;13.626;2023-04-25T03:59:18;9.85;;;4.82;;
40290;SDS011;26000;48.304;13.626;2023-04-25T04:01:43;6.90;;;4.90;;
40290;SDS011;26000;48.304;13.626;2023-04-25T04:04:09;10.48;;;4.88;;
40290;SDS011;26000;48.304;13.626;2023-04-25T04:06:34;6.97;;;4.60;;
40290;SDS011;26000;48.304;13.626;2023-04-25T04:09:01;6.57;;;4.00;;
40290;SDS011;26000;48.304;13.626;2023-04-25T04:11:27;8.27;;;4.55;;
40290;SDS011;26000;48.304;13.626;2023-04-25T04:13:53;6.93;;;4.57;;
40290;SDS011;26000;48.304;13.626;2023-04-25T04:16:19;10.18;;;4.35;;
40290;SDS011;26000;48.304;13.626;2023-04-25T04:18:45;6.10;;;3.95;;
40290;SDS011;26000;48.304;13.626;2023-04-25T04:21:11;4.78;;;4.03;;
40290;SDS011;26000;48.304;13.626;2023-04-25T04:23:37;4.57;;;4.13;;
40290;SDS011;26000;48.304;13.626;2023-04-25T04:26:03;4.88;;;4.20;;
40290;SDS011;26000;48.304;13.626;2023-04-25T04:28:28;5.97;;;4.30;;
40290;SDS011;26000;48.304;13.626;2023-04-25T04:30:54;7.53;;;4.60;;
40290;SDS011;26000;48.304;13.626;2023-04-25T04:33:20;5.63;;;4.90;;
40290;SDS011;26000;48.304;13.626;2023-04-25T04:35:46;5.90;;;5.15;;
40290;SDS011;26000;48.304;13.626;2023-04-25T04:38:12;6.03;;;5.40;;
40290;SDS011;26000;48.304;13.626;2023-04-25T04:40:40;8.32;;;5.10;;
40290;SDS011;26000;48.304;13.626;2023-04-25T04:43:08;5.75;;;4.80;;
40290;SDS011;26000;48.304;13.626;2023-04-25T04:45:35;6.25;;;4.50;;
40290;SDS011;26000;48.304;13.626;2023-04-25T04:48:03;5.15;;;4.55;;
40290;SDS011;26000;48.304;13.626;2023-04-25T04:50:30;5.10;;;4.53;;
40290;SDS011;26000;48.304;13.626;2023-04-25T04:52:57;6.05;;;4.88;;
40290;SDS011;26000;48.304;13.626;2023-04-25T04:55:23;6.82;;;5.00;;
40290;SDS011;26000;48.304;13.626;2023-04-25T04:57:49;12.85;;;4.70;;
40290;SDS011;26000;48.304;13.626;2023-04-25T05:00:15;5.10;;;4.57;;
40290;SDS011;26000;48.304;13.626;2023-04-25T05:02:40;6.88;;;5.20;;
40290;SDS011;26000;48.304;13.626;2023-04-25T05:05:06;6.63;;;4.70;;
40290;SDS011;26000;48.304;13.626;2023-04-25T05:07:32;7.35;;;4.57;;
40290;SDS011;26000;48.304;13.626;2023-04-25T05:09:58;6.50;;;5.30;;
40290;SDS011;26000;48.304;13.626;2023-04-25T05:12:24;10.82;;;5.30;;
40290;SDS011;26000;48.304;13.626;2023-04-25T05:14:50;6.80;;;5.97;;
40290;SDS011;26000;48.304;13.626;2023-04-25T05:17:15;7.85;;;6.05;;
40290;SDS011;26000;48.304;13.626;2023-04-25T05:19:41;8.68;;;5.80;;
40290;SDS011;26000;48.304;13.626;2023-04-25T05:22:07;6.60;;;4.80;;
40290;SDS011;26000;48.304;13.626;2023-04-25T05:24:32;7.15;;;4.65;;
40290;SDS011;26000;48.304;13.626;2023-04-25T05:26:58;6.70;;;4.57;;
40290;SDS011;26000;48.304;13.626;2023-04-25T05:29:23;6.65;;;4.50;;
40290;SDS011;26000;48.304;13.626;2023-04-25T05:31:49;9.68;;;4.75;;
40290;SDS011;26000;48.304;13.626;2023-04-25T05:34:15;6.00;;;4.53;;
40290;SDS011;26000;48.304;13.626;2023-04-25T05:36:41;7.20;;;5.00;;
40290;SDS011;26000;48.304;13.626;2023-04-25T05:39:07;5.55;;;4.68;;
40290;SDS011;26000;48.304;13.626;2023-04-25T05:41:33;6.72;;;4.80;;
40290;SDS011;26000;48.304;13.626;2023-04-25T05:43:59;7.07;;;5.43;;
40290;SDS011;26000;48.304;13.626;2023-04-25T05:46:25;5.82;;;4.38;;
40290;SDS011;26000;48.304;13.626;2023-04-25T05:48:50;6.20;;;4.55;;
40290;SDS011;26000;48.304;13.626;2023-04-25T05:51:16;5.90;;;4.78;;
40290;SDS011;26000;48.304;13.626;2023-04-25T05:53:43;10.30;;;4.93;;
40290;SDS011;26000;48.304;13.626;2023-04-25T05:56:09;9.30;;;7.32;;
40290;SDS011;26000;48.304;13.626;2023-04-25T05:58:34;17.02;;;13.88;;
40290;SDS011;26000;48.304;13.626;2023-04-25T06:01:00;14.02;;;10.73;;
40290;SDS011;26000;48.304;13.626;2023-04-25T06:03:27;9.93;;;6.82;;
40290;SDS011;26000;48.304;13.626;2023-04-25T06:05:53;9.32;;;8.02;;
40290;SDS011;26000;48.304;13.626;2023-04-25T06:08:18;6.45;;;5.57;;
40290;SDS011;26000;48.304;13.626;2023-04-25T06:10:44;6.97;;;4.90;;
40290;SDS011;26000;48.304;13.626;2023-04-25T06:13:10;7.45;;;4.10;;
40290;SDS011;26000;48.304;13.626;2023-04-25T06:15:35;5.03;;;3.83;;
40290;SDS011;26000;48.304;13.626;2023-04-25T06:18:01;4.57;;;3.80;;
40290;SDS011;26000;48.304;13.626;2023-04-25T06:20:27;5.95;;;4.00;;
40290;SDS011;26000;48.304;13.626;2023-04-25T06:22:52;5.03;;;3.67;;
40290;SDS011;26000;48.304;13.626;2023-04-25T06:25:18;5.32;;;4.22;;
40290;SDS011;26000;48.304;13.626;2023-04-25T06:27:44;4.95;;;3.25;;
40290;SDS011;26000;48.304;13.626;2023-04-25T06:30:10;4.40;;;3.75;;
40290;SDS011;26000;48.304;13.626;2023-04-25T06:32:37;5.07;;;3.70;;
40290;SDS011;26000;48.304;13.626;2023-04-25T06:35:03;5.00;;;3.58;;
40290;SDS011;26000;48.304;13.626;2023-04-25T06:37:29;4.72;;;3.60;;
40290;SDS011;26000;48.304;13.626;2023-04-25T06:39:55;3.60;;;3.28;;
40290;SDS011;26000;48.304;13.626;2023-04-25T06:42:20;6.88;;;3.83;;
40290;SDS011;26000;48.304;13.626;2023-04-25T06:44:46;6.45;;;4.07;;
40290;SDS011;26000;48.304;13.626;2023-04-25T06:47:12;5.28;;;3.90;;
40290;SDS011;26000;48.304;13.626;2023-04-25T06:49:39;5.28;;;3.90;;
40290;SDS011;26000;48.304;13.626;2023-04-25T06:52:05;5.63;;;3.88;;
40290;SDS011;26000;48.304;13.626;2023-04-25T06:54:30;5.32;;;4.00;;
40290;SDS011;26000;48.304;13.626;2023-04-25T06:56:56;5.32;;;4.15;;
40290;SDS011;26000;48.304;13.626;2023-04-25T06:59:22;4.30;;;3.90;;
40290;SDS011;26000;48.304;13.626;2023-04-25T07:01:47;6.82;;;4.13;;
40290;SDS011;26000;48.304;13.626;2023-04-25T07:04:13;6.05;;;4.13;;
40290;SDS011;26000;48.304;13.626;2023-04-25T07:06:38;5.22;;;3.83;;
40290;SDS011;26000;48.304;13.626;2023-04-25T07:09:08;6.95;;;4.00;;
40290;SDS011;26000;48.304;13.626;2023-04-25T07:11:35;5.68;;;4.00;;
40290;SDS011;26000;48.304;13.626;2023-04-25T07:14:00;4.35;;;3.75;;
40290;SDS011;26000;48.304;13.626;2023-04-25T07:16:26;6.43;;;4.15;;
40290;SDS011;26000;48.304;13.626;2023-04-25T07:18:52;6.70;;;4.40;;
40290;SDS011;26000;48.304;13.626;2023-04-25T07:21:18;6.60;;;5.65;;
40290;SDS011;26000;48.304;13.626;2023-04-25T07:23:43;5.60;;;4.28;;
40290;SDS011;26000;48.304;13.626;2023-04-25T07:26:09;5.15;;;3.60;;
40290;SDS011;26000;48.304;13.626;2023-04-25T07:28:35;5.68;;;3.55;;
40290;SDS011;26000;48.304;13.626;2023-04-25T07:31:00;5.55;;;3.90;;
40290;SDS011;26000;48.304;13.626;2023-04-25T07:33:26;5.43;;;3.83;;
40290;SDS011;26000;48.304;13.626;2023-04-25T07:35:52;5.85;;;3.70;;
40290;SDS011;26000;48.304;13.626;2023-04-25T07:38:18;4.45;;;3.47;;
40290;SDS011;26000;48.304;13.626;2023-04-25T07:40:43;6.65;;;3.60;;
40290;SDS011;26000;48.304;13.626;2023-04-25T07:43:09;6.28;;;4.25;;
40290;SDS011;26000;48.304;13.626;2023-04-25T07:45:37;7.70;;;5.95;;
40290;SDS011;26000;48.304;13.626;2023-04-25T07:48:02;9.63;;;7.55;;
40290;SDS011;26000;48.304;13.626;2023-04-25T07:50:28;11.18;;;7.38;;
40290;SDS011;26000;48.304;13.626;2023-04-25T07:52:54;7.15;;;4.43;;
40290;SDS011;26000;48.304;13.626;2023-04-25T07:55:20;5.68;;;3.50;;
40290;SDS011;26000;48.304;13.626;2023-04-25T07:57:45;5.93;;;4.30;;
40290;SDS011;26000;48.304;13.626;2023-04-25T08:00:11;5.40;;;3.83;;
40290;SDS011;26000;48.304;13.626;2023-04-25T08:02:37;5.13;;;3.60;;
40290;SDS011;26000;48.304;13.626;2023-04-25T08:05:03;4.50;;;3.50;;
40290;SDS011;26000;48.304;13.626;2023-04-25T08:07:29;7.13;;;4.10;;
40290;SDS011;26000;48.304;13.626;2023-04-25T08:09:55;4.93;;;3.80;;
40290;SDS011;26000;48.304;13.626;2023-04-25T08:12:21;6.00;;;3.70;;
40290;SDS011;26000;48.304;13.626;2023-04-25T08:14:46;6.75;;;5.10;;
40290;SDS011;26000;48.304;13.626;2023-04-25T08:17:12;5.85;;;3.92;;
40290;SDS011;26000;48.304;13.626;2023-04-25T08:19:37;5.25;;;3.88;;
40290;SDS011;26000;48.304;13.626;2023-04-25T08:22:03;6.03;;;3.72;;
40290;SDS011;26000;48.304;13.626;2023-04-25T08:24:28;6.95;;;3.95;;
40290;SDS011;26000;48.304;13.626;2023-04-25T08:26:54;6.25;;;3.97;;
40290;SDS011;26000;48.304;13.626;2023-04-25T08:29:20;5.47;;;3.40;;
40290;SDS011;26000;48.304;13.626;2023-04-25T08:31:48;6.40;;;3.78;;
40290;SDS011;26000;48.304;13.626;2023-04-25T08:34:13;6.18;;;4.05;;
40290;SDS011;26000;48.304;13.626;2023-04-25T08:36:40;5.57;;;3.42;;
40290;SDS011;26000;48.304;13.626;2023-04-25T08:39:05;6.90;;;5.07;;
40290;SDS011;26000;48.304;13.626;2023-04-25T08:41:31;6.45;;;4.93;;
40290;SDS011;26000;48.304;13.626;2023-04-25T08:43:57;4.53;;;3.33;;
40290;SDS011;26000;48.304;13.626;2023-04-25T08:46:25;4.50;;;3.17;;
40290;SDS011;26000;48.304;13.626;2023-04-25T08:48:51;4.63;;;3.25;;
40290;SDS011;26000;48.304;13.626;2023-04-25T08:51:21;4.47;;;3.35;;
40290;SDS011;26000;48.304;13.626;2023-04-25T08:53:51;4.93;;;3.40;;
40290;SDS011;26000;48.304;13.626;2023-04-25T08:56:17;4.25;;;3.30;;
40290;SDS011;26000;48.304;13.626;2023-04-25T08:58:45;4.55;;;3.22;;
40290;SDS011;26000;48.304;13.626;2023-04-25T09:01:13;5.35;;;3.65;;
40290;SDS011;26000;48.304;13.626;2023-04-25T09:03:39;6.28;;;3.22;;
40290;SDS011;26000;48.304;13.626;2023-04-25T09:06:05;6.07;;;3.08;;
40290;SDS011;26000;48.304;13.626;2023-04-25T09:08:31;7.72;;;3.17;;
40290;SDS011;26000;48.304;13.626;2023-04-25T09:10:56;4.63;;;2.85;;
40290;SDS011;26000;48.304;13.626;2023-04-25T09:13:26;5.72;;;2.83;;
40290;SDS011;26000;48.304;13.626;2023-04-25T09:15:56;4.32;;;3.20;;
40290;SDS011;26000;48.304;13.626;2023-04-25T09:18:29;3.60;;;2.67;;
40290;SDS011;26000;48.304;13.626;2023-04-25T09:20:58;5.43;;;3.15;;
40290;SDS011;26000;48.304;13.626;2023-04-25T09:23:30;7.15;;;2.95;;
40290;SDS011;26000;48.304;13.626;2023-04-25T09:26:03;4.93;;;2.90;;
40290;SDS011;26000;48.304;13.626;2023-04-25T09:28:31;4.65;;;2.75;;
40290;SDS011;26000;48.304;13.626;2023-04-25T09:30:57;4.10;;;2.67;;
40290;SDS011;26000;48.304;13.626;2023-04-25T09:33:27;4.35;;;3.13;;
40290;SDS011;26000;48.304;13.626;2023-04-25T09:36:07;3.57;;;2.63;;
40290;SDS011;26000;48.304;13.626;2023-04-25T09:38:39;3.70;;;3.00;;
40290;SDS011;26000;48.304;13.626;2023-04-25T09:41:10;5.15;;;2.90;;
40290;SDS011;26000;48.304;13.626;2023-04-25T09:43:36;7.28;;;2.55;;
40290;SDS011;26000;48.304;13.626;2023-04-25T09:46:07;5.45;;;2.75;;
40290;SDS011;26000;48.304;13.626;2023-04-25T09:48:34;5.38;;;2.85;;
40290;SDS011;26000;48.304;13.626;2023-04-25T09:51:10;5.38;;;3.20;;
40290;SDS011;26000;48.304;13.626;2023-04-25T09:53:42;4.60;;;2.80;;
40290;SDS011;26000;48.304;13.626;2023-04-25T09:56:11;5.50;;;2.97;;
40290;SDS011;26000;48.304;13.626;2023-04-25T09:58:38;3.67;;;2.72;;
40290;SDS011;26000;48.304;13.626;2023-04-25T10:01:09;7.10;;;3.10;;
40290;SDS011;26000;48.304;13.626;2023-04-25T10:03:39;3.92;;;2.50;;
40290;SDS011;26000;48.304;13.626;2023-04-25T10:06:07;4.25;;;2.13;;
40290;SDS011;26000;48.304;13.626;2023-04-25T10:08:35;2.85;;;1.63;;
40290;SDS011;26000;48.304;13.626;2023-04-25T10:11:04;1.80;;;1.58;;
40290;SDS011;26000;48.304;13.626;2023-04-25T10:13:32;2.33;;;1.40;;
40290;SDS011;26000;48.304;13.626;2023-04-25T10:15:58;2.28;;;1.25;;
40290;SDS011;26000;48.304;13.626;2023-04-25T10:18:29;3.10;;;1.60;;
40290;SDS011;26000;48.304;13.626;2023-04-25T10:20:59;3.22;;;1.83;;
40290;SDS011;26000;48.304;13.626;2023-04-25T10:23:25;2.47;;;1.70;;
40290;SDS011;26000;48.304;13.626;2023-04-25T10:25:52;2.20;;;1.58;;
40290;SDS011;26000;48.304;13.626;2023-04-25T10:28:19;1.60;;;1.40;;
40290;SDS011;26000;48.304;13.626;2023-04-25T10:31:04;2.40;;;1.70;;
40290;SDS011;26000;48.304;13.626;2023-04-25T10:33:33;1.65;;;1.30;;
40290;SDS011;26000;48.304;13.626;2023-04-25T10:36:07;1.75;;;1.63;;
40290;SDS011;26000;48.304;13.626;2023-04-25T10:38:44;2.30;;;1.40;;
40290;SDS011;26000;48.304;13.626;2023-04-25T10:41:11;2.63;;;1.50;;
40290;SDS011;26000;48.304;13.626;2023-04-25T10:48:50;2.35;;;1.45;;
40290;SDS011;26000;48.304;13.626;2023-04-25T10:56:22;2.15;;;1.10;;
40290;SDS011;26000;48.304;13.626;2023-04-25T10:58:50;1.27;;;1.00;;
40290;SDS011;26000;48.304;13.626;2023-04-25T11:01:19;1.52;;;1.10;;
40290;SDS011;26000;48.304;13.626;2023-04-25T11:03:46;1.58;;;1.00;;
40290;SDS011;26000;48.304;13.626;2023-04-25T11:09:16;1.90;;;1.27;;
40290;SDS011;26000;48.304;13.626;2023-04-25T11:11:42;2.10;;;1.10;;
40290;SDS011;26000;48.304;13.626;2023-04-25T11:14:08;4.18;;;1.45;;
40290;SDS011;26000;48.304;13.626;2023-04-25T11:16:33;3.13;;;1.70;;
40290;SDS011;26000;48.304;13.626;2023-04-25T11:19:01;4.00;;;1.80;;
40290;SDS011;26000;48.304;13.626;2023-04-25T11:21:27;3.00;;;2.03;;
40290;SDS011;26000;48.304;13.626;2023-04-25T11:23:53;3.17;;;2.28;;
40290;SDS011;26000;48.304;13.626;2023-04-25T11:26:19;2.05;;;1.85;;
40290;SDS011;26000;48.304;13.626;2023-04-25T11:28:45;3.30;;;1.80;;
40290;SDS011;26000;48.304;13.626;2023-04-25T11:31:12;2.05;;;1.75;;
40290;SDS011;26000;48.304;13.626;2023-04-25T11:33:37;2.42;;;2.00;;
40290;SDS011;26000;48.304;13.626;2023-04-25T11:36:03;2.45;;;1.95;;
40290;SDS011;26000;48.304;13.626;2023-04-25T11:38:30;4.65;;;2.17;;
40290;SDS011;26000;48.304;13.626;2023-04-25T11:40:56;3.25;;;1.83;;
40290;SDS011;26000;48.304;13.626;2023-04-25T11:43:22;4.00;;;2.22;;
40290;SDS011;26000;48.304;13.626;2023-04-25T11:45:48;3.33;;;2.10;;
40290;SDS011;26000;48.304;13.626;2023-04-25T11:48:15;4.13;;;2.00;;
40290;SDS011;26000;48.304;13.626;2023-04-25T11:50:41;3.25;;;2.28;;
40290;SDS011;26000;48.304;13.626;2023-04-25T11:53:07;1.50;;;1.40;;
40290;SDS011;26000;48.304;13.626;2023-04-25T11:55:33;1.60;;;1.50;;
40290;SDS011;26000;48.304;13.626;2023-04-25T11:57:59;1.52;;;1.42;;
40290;SDS011;26000;48.304;13.626;2023-04-25T12:00:25;2.58;;;1.60;;
40290;SDS011;26000;48.304;13.626;2023-04-25T12:02:52;5.07;;;1.80;;
40290;SDS011;26000;48.304;13.626;2023-04-25T12:05:19;2.00;;;1.73;;
40290;SDS011;26000;48.304;13.626;2023-04-25T12:07:45;2.38;;;1.50;;
40290;SDS011;26000;48.304;13.626;2023-04-25T12:10:12;2.47;;;1.90;;
40290;SDS011;26000;48.304;13.626;2023-04-25T12:12:42;3.55;;;2.53;;
40290;SDS011;26000;48.304;13.626;2023-04-25T12:15:23;2.67;;;2.30;;
40290;SDS011;26000;48.304;13.626;2023-04-25T12:17:50;3.10;;;2.20;;
40290;SDS011;26000;48.304;13.626;2023-04-25T12:20:18;2.58;;;1.90;;
40290;SDS011;26000;48.304;13.626;2023-04-25T12:22:46;7.45;;;2.40;;
40290;SDS011;26000;48.304;13.626;2023-04-25T12:25:13;3.45;;;2.00;;
40290;SDS011;26000;48.304;13.626;2023-04-25T12:28:14;2.72;;;2.25;;
40290;SDS011;26000;48.304;13.626;2023-04-25T12:33:21;4.22;;;2.53;;
40290;SDS011;26000;48.304;13.626;2023-04-25T12:35:47;2.72;;;2.45;;
40290;SDS011;26000;48.304;13.626;2023-04-25T12:38:25;3.15;;;2.70;;
40290;SDS011;26000;48.304;13.626;2023-04-25T12:40:51;3.13;;;2.83;;
40290;SDS011;26000;48.304;13.626;2023-04-25T12:43:17;4.82;;;3.08;;
40290;SDS011;26000;48.304;13.626;2023-04-25T12:45:44;3.03;;;2.72;;
40290;SDS011;26000;48.304;13.626;2023-04-25T12:48:10;2.55;;;2.35;;
40290;SDS011;26000;48.304;13.626;2023-04-25T12:50:36;4.55;;;3.10;;
40290;SDS011;26000;48.304;13.626;2023-04-25T12:53:01;3.55;;;2.50;;
40290;SDS011;26000;48.304;13.626;2023-04-25T12:55:27;3.20;;;2.90;;
40290;SDS011;26000;48.304;13.626;2023-04-25T12:57:52;3.67;;;3.17;;
40290;SDS011;26000;48.304;13.626;2023-04-25T13:00:18;4.05;;;2.60;;
40290;SDS011;26000;48.304;13.626;2023-04-25T13:02:45;3.83;;;2.90;;
40290;SDS011;26000;48.304;13.626;2023-04-25T13:05:11;3.28;;;2.97;;
40290;SDS011;26000;48.304;13.626;2023-04-25T13:07:37;4.03;;;3.38;;
40290;SDS011;26000;48.304;13.626;2023-04-25T13:10:03;3.55;;;3.17;;
40290;SDS011;26000;48.304;13.626;2023-04-25T13:12:30;3.25;;;2.95;;
40290;SDS011;26000;48.304;13.626;2023-04-25T13:14:56;3.10;;;2.80;;
40290;SDS011;26000;48.304;13.626;2023-04-25T13:17:22;3.28;;;2.97;;
40290;SDS011;26000;48.304;13.626;2023-04-25T13:19:47;3.25;;;2.90;;
40290;SDS011;26000;48.304;13.626;2023-04-25T13:22:13;3.20;;;2.90;;
40290;SDS011;26000;48.304;13.626;2023-04-25T13:24:40;3.40;;;3.10;;
40290;SDS011;26000;48.304;13.626;2023-04-25T13:27:06;3.33;;;3.00;;
40290;SDS011;26000;48.304;13.626;2023-04-25T13:29:31;4.05;;;3.30;;
40290;SDS011;26000;48.304;13.626;2023-04-25T13:31:59;3.20;;;2.90;;
40290;SDS011;26000;48.304;13.626;2023-04-25T13:34:25;4.28;;;3.13;;
40290;SDS011;26000;48.304;13.626;2023-04-25T13:36:51;3.20;;;2.90;;
40290;SDS011;26000;48.304;13.626;2023-04-25T13:39:17;4.25;;;2.80;;
40290;SDS011;26000;48.304;13.626;2023-04-25T13:41:42;4.38;;;2.90;;
40290;SDS011;26000;48.304;13.626;2023-04-25T13:44:08;2.90;;;2.67;;
40290;SDS011;26000;48.304;13.626;2023-04-25T13:46:36;2.42;;;2.22;;
40290;SDS011;26000;48.304;13.626;2023-04-25T13:49:02;2.55;;;2.22;;
40290;SDS011;26000;48.304;13.626;2023-04-25T13:51:28;3.47;;;2.30;;
40290;SDS011;26000;48.304;13.626;2023-04-25T13:53:54;2.40;;;2.20;;
40290;SDS011;26000;48.304;13.626;2023-04-25T13:56:20;2.85;;;2.30;;
40290;SDS011;26000;48.304;13.626;2023-04-25T13:58:47;2.65;;;2.45;;
40290;SDS011;26000;48.304;13.626;2023-04-25T14:01:12;2.95;;;2.22;;
40290;SDS011;26000;48.304;13.626;2023-04-25T14:03:38;2.92;;;2.60;;
40290;SDS011;26000;48.304;13.626;2023-04-25T14:06:04;3.03;;;2.53;;
40290;SDS011;26000;48.304;13.626;2023-04-25T14:08:31;3.35;;;2.70;;
40290;SDS011;26000;48.304;13.626;2023-04-25T14:10:56;4.15;;;2.88;;
40290;SDS011;26000;48.304;13.626;2023-04-25T14:13:22;2.75;;;2.47;;
40290;SDS011;26000;48.304;13.626;2023-04-25T14:15:48;2.78;;;2.30;;
40290;SDS011;26000;48.304;13.626;2023-04-25T14:18:15;2.30;;;2.05;;
40290;SDS011;26000;48.304;13.626;2023-04-25T14:20:41;2.35;;;2.15;;
40290;SDS011;26000;48.304;13.626;2023-04-25T14:23:06;2.30;;;2.10;;
40290;SDS011;26000;48.304;13.626;2023-04-25T14:25:32;2.35;;;2.00;;
40290;SDS011;26000;48.304;13.626;2023-04-25T14:27:57;2.47;;;2.20;;
40290;SDS011;26000;48.304;13.626;2023-04-25T14:30:23;2.10;;;1.90;;
40290;SDS011;26000;48.304;13.626;2023-04-25T14:32:49;2.30;;;2.10;;
40290;SDS011;26000;48.304;13.626;2023-04-25T14:35:15;4.30;;;2.13;;
40290;SDS011;26000;48.304;13.626;2023-04-25T14:37:40;2.20;;;2.00;;
40290;SDS011;26000;48.304;13.626;2023-04-25T14:40:06;2.80;;;2.10;;
40290;SDS011;26000;48.304;13.626;2023-04-25T14:42:37;2.97;;;2.10;;
40290;SDS011;26000;48.304;13.626;2023-04-25T14:45:05;2.20;;;2.00;;